Airfield :
LOGIN :

Register | Disclaimer

   EN    FR    IT 

 










Legend :    VFR   Marginal VFR   IFR   Intensive IFR   Very Intensive IFR
Visi :
Ceiling :
>= 8 km
>= 3000ft
5 to 8 km
1000 to 3000 ft
1500m to 5 km
500 to 1000 ft
800 to 1500m
200 to 500 ft
< 800m
< 200 ft
Symbols :   Thunderstorms  Fog  Heavy snow  Heavy precipitations  Wind > 20 kt
SIGMETs :     Misc.  Thunderstorms  Icing  Turbulence  Mountain Waves  Volcanic Ashes







- Airport Elevation : 160 ft
- IATA code : FMO


EDDG - Münster Osnabrück Int.

CURRENT METAR :
  • 262350Z 35007KT 9999 BKN015 15/12 Q1027 BECMG FM0015 BKN014

EXPIRED METARs :
  • 262320Z 34006KT 9999 FEW015 15/12 Q1027 BECMG FM0015 BKN014
  • 262250Z 34005KT CAVOK 15/12 Q1027 BECMG FM0015 BKN014
  • 262220Z 35007KT CAVOK 16/12 Q1027 NOSIG
  • 262150Z 35009KT CAVOK 16/12 Q1027 NOSIG
  • 262120Z 35011KT CAVOK 17/12 Q1026 NOSIG

TAF TAF EDDG
Valid from the 27 at 00:00 until the 28 at 00:00 UTC


262300Z 2700/2724 35006KT CAVOK
PROB40
TEMPO 2700/2704 BKN012
TEMPO 2715/2719 35011KT
No reported NOTAMs for that airfield.



MET'MAP, your aeronautical weather chart ! - Copyright ORBIFLY December 2007 - Disclaimer

ORBIFLY MET'MAP TEAM :

Programming & Development : Alexandra Zaïnal
Concept & Development : Baudouin d'Aumeries
Co-Development & Prog : Marc-Olivier Méhu
Technical & hardware support : Manuel Goepfert

Contact : metmap@orbifly.com




SOURCES & CREDITS :

   NOAA